createdAt,value
2018-05-21T00:01:51.908Z,98072
2018-05-21T00:04:24.217Z,98072
2018-05-21T00:06:55.782Z,98072
2018-05-21T00:09:28.729Z,98070
2018-05-21T00:12:01.153Z,98071
2018-05-21T00:14:34.954Z,98068
2018-05-21T00:17:07.197Z,98070
2018-05-21T00:19:40.478Z,98066
2018-05-21T00:22:12.794Z,98062
2018-05-21T00:24:45.194Z,98059
2018-05-21T00:27:17.137Z,98061
2018-05-21T00:29:54.336Z,98058
2018-05-21T00:32:26.696Z,98059
2018-05-21T00:35:02.473Z,98053
2018-05-21T00:37:36.131Z,98056
2018-05-21T00:40:10.554Z,98052
2018-05-21T00:42:45.517Z,98049
2018-05-21T00:45:19.930Z,98049
2018-05-21T00:47:52.213Z,98046
2018-05-21T00:50:28.270Z,98044
2018-05-21T00:53:00.355Z,98038
2018-05-21T00:55:42.994Z,98044
2018-05-21T00:58:15.136Z,98046
2018-05-21T01:00:46.893Z,98048
2018-05-21T01:03:20.021Z,98040
2018-05-21T01:05:53.472Z,98038
2018-05-21T01:08:26.217Z,98034
2018-05-21T01:10:58.930Z,98037
2018-05-21T01:13:31.472Z,98034
2018-05-21T01:16:04.913Z,98032
2018-05-21T01:18:37.952Z,98033
2018-05-21T01:21:09.577Z,98031
2018-05-21T01:23:43.637Z,98030
2018-05-21T01:26:15.621Z,98028
2018-05-21T01:28:48.753Z,98027
2018-05-21T01:31:23.696Z,98024
2018-05-21T01:33:57.352Z,98027
2018-05-21T01:36:30.615Z,98024
2018-05-21T01:39:03.128Z,98026
2018-05-21T01:41:35.933Z,98029
2018-05-21T01:44:08.353Z,98030
2018-05-21T01:46:41.055Z,98026
2018-05-21T01:49:16.256Z,98024
2018-05-21T01:51:49.032Z,98030
2018-05-21T01:54:23.735Z,98032
2018-05-21T01:56:56.315Z,98033
2018-05-21T01:59:28.597Z,98030
2018-05-21T02:02:02.459Z,98031
2018-05-21T02:04:34.595Z,98023
2018-05-21T02:07:07.514Z,98026
2018-05-21T02:09:39.651Z,98022
2018-05-21T02:12:12.295Z,98023
2018-05-21T02:14:45.137Z,98027
2018-05-21T02:17:19.431Z,98018
2018-05-21T02:19:52.727Z,98016
2018-05-21T02:22:25.632Z,98012
2018-05-21T02:24:58.156Z,98017
2018-05-21T02:27:30.011Z,98012
2018-05-21T02:30:02.739Z,98008
2018-05-21T02:32:34.837Z,98013
2018-05-21T02:35:07.396Z,98010
2018-05-21T02:37:41.198Z,98004
2018-05-21T02:40:14.515Z,98007
2018-05-21T02:42:46.538Z,98006
2018-05-21T02:45:19.416Z,98011
2018-05-21T02:47:51.842Z,98009
2018-05-21T02:50:24.678Z,98005
2018-05-21T02:52:58.114Z,98010
2018-05-21T02:55:31.715Z,98011
2018-05-21T02:58:03.914Z,98010
2018-05-21T03:00:38.917Z,98008
2018-05-21T03:03:13.730Z,98012
2018-05-21T03:05:47.034Z,98015
2018-05-21T03:08:20.173Z,98011
2018-05-21T03:10:55.484Z,98007
2018-05-21T03:13:29.432Z,98010
2018-05-21T03:16:08.674Z,98010
2018-05-21T03:18:40.871Z,98018
2018-05-21T03:21:13.156Z,98021
2018-05-21T03:23:45.097Z,98018
2018-05-21T03:26:18.757Z,98019
2018-05-21T03:28:53.273Z,98022
2018-05-21T03:31:27.855Z,98019
2018-05-21T03:34:02.231Z,98021
2018-05-21T03:36:37.213Z,98021
2018-05-21T03:39:11.616Z,98019
2018-05-21T03:41:44.814Z,98014
2018-05-21T03:44:18.401Z,98012
2018-05-21T03:46:51.431Z,98008
2018-05-21T03:49:24.341Z,98011
2018-05-21T03:51:57.235Z,98009
2018-05-21T03:54:30.210Z,98007
2018-05-21T03:57:03.602Z,98012
2018-05-21T03:59:52.375Z,98002
2018-05-21T04:02:41.437Z,98009
2018-05-21T04:05:18.191Z,98008
2018-05-21T04:07:51.215Z,98005
2018-05-21T04:10:25.993Z,98010
2018-05-21T04:13:02.075Z,98006
2018-05-21T04:15:34.991Z,98013
2018-05-21T04:18:09.691Z,98007
2018-05-21T04:20:42.834Z,98015
2018-05-21T04:23:17.332Z,98008
2018-05-21T04:25:50.441Z,98012
2018-05-21T04:28:22.976Z,98004
2018-05-21T04:30:56.853Z,98001
2018-05-21T04:33:29.710Z,98002
2018-05-21T04:36:02.335Z,98000
2018-05-21T04:38:34.793Z,98001
2018-05-21T04:41:08.097Z,98003
2018-05-21T04:43:41.212Z,98005
2018-05-21T04:46:17.618Z,98007
2018-05-21T04:48:49.657Z,98004
2018-05-21T04:51:21.912Z,98002
2018-05-21T04:53:54.259Z,97999
2018-05-21T04:56:27.297Z,98001
2018-05-21T04:58:59.331Z,97999
2018-05-21T05:01:31.414Z,97999
2018-05-21T05:04:04.016Z,98002
2018-05-21T05:06:36.318Z,97996
2018-05-21T05:09:09.463Z,97996
2018-05-21T05:11:44.917Z,97995
2018-05-21T05:14:17.714Z,97994
2018-05-21T05:16:51.353Z,97983
2018-05-21T05:19:26.697Z,97980
2018-05-21T05:21:59.394Z,97982
2018-05-21T05:24:31.837Z,97983
2018-05-21T05:27:04.161Z,97983
2018-05-21T05:29:36.793Z,97987
2018-05-21T05:32:09.806Z,97987
2018-05-21T05:34:43.014Z,97984
2018-05-21T05:37:15.456Z,97985
2018-05-21T05:39:47.921Z,97982
2018-05-21T05:42:22.298Z,97982
2018-05-21T05:44:55.734Z,97980
2018-05-21T05:47:29.052Z,97976
2018-05-21T05:50:01.794Z,97976
2018-05-21T05:52:34.913Z,97976
2018-05-21T05:55:08.699Z,97973
2018-05-21T05:57:42.395Z,97973
2018-05-21T06:00:16.389Z,97969
2018-05-21T06:02:50.577Z,97969
2018-05-21T06:05:22.916Z,97970
2018-05-21T06:07:57.036Z,97969
2018-05-21T06:10:29.451Z,97962
2018-05-21T06:13:02.615Z,97967
2018-05-21T06:15:38.471Z,97961
2018-05-21T06:18:11.714Z,97965
2018-05-21T06:20:43.935Z,97958
2018-05-21T06:23:16.436Z,97957
2018-05-21T06:25:49.602Z,97948
2018-05-21T06:28:22.135Z,97951
2018-05-21T06:30:54.737Z,97947
2018-05-21T06:33:26.894Z,97948
2018-05-21T06:36:01.272Z,97947
2018-05-21T06:38:33.337Z,97945
2018-05-21T06:41:05.707Z,97947
2018-05-21T06:43:38.120Z,97946
2018-05-21T06:46:10.312Z,97938
2018-05-21T06:48:43.130Z,97939
2018-05-21T06:51:16.795Z,97939
2018-05-21T06:53:49.693Z,97938
2018-05-21T06:56:23.111Z,97934
2018-05-21T06:58:56.516Z,97932
2018-05-21T07:01:29.587Z,97927
2018-05-21T07:04:03.611Z,97918
2018-05-21T07:06:37.980Z,97911
2018-05-21T07:09:15.695Z,97916
2018-05-21T07:11:51.175Z,97911
2018-05-21T07:14:24.551Z,97915
2018-05-21T07:17:02.219Z,97902
2018-05-21T07:19:34.615Z,97897
2018-05-21T07:22:07.752Z,97904
2018-05-21T07:24:40.877Z,97897
2018-05-21T07:27:15.431Z,97892
2018-05-21T07:29:48.075Z,97888
2018-05-21T07:32:22.498Z,97889
2018-05-21T07:34:55.251Z,97890
2018-05-21T07:37:29.055Z,97885
2018-05-21T07:40:03.435Z,97883
2018-05-21T07:42:36.699Z,97884
2018-05-21T07:45:10.432Z,97885
2018-05-21T07:47:44.290Z,97880
2018-05-21T07:50:18.695Z,97879
2018-05-21T07:52:52.671Z,97872
2018-05-21T07:55:25.511Z,97872
2018-05-21T07:57:58.856Z,97868
2018-05-21T08:00:33.692Z,97860
2018-05-21T08:03:06.790Z,97862
2018-05-21T08:05:40.032Z,97859
2018-05-21T08:08:15.037Z,97855
2018-05-21T08:10:48.843Z,97850
2018-05-21T08:13:30.251Z,97849
2018-05-21T08:16:04.037Z,97848
2018-05-21T08:18:37.060Z,97842
2018-05-21T08:21:10.878Z,97845
2018-05-21T08:23:42.902Z,97843
2018-05-21T08:26:15.282Z,97843
2018-05-21T08:28:48.212Z,97838
2018-05-21T08:31:27.815Z,97838
2018-05-21T08:34:06.656Z,97834
2018-05-21T08:36:39.733Z,97832
2018-05-21T08:39:12.491Z,97830
2018-05-21T08:41:45.654Z,97830
2018-05-21T08:44:18.655Z,97823
2018-05-21T08:46:52.556Z,97821
2018-05-21T08:49:27.916Z,97821
2018-05-21T08:52:00.773Z,97822
2018-05-21T08:54:36.485Z,97821
2018-05-21T08:57:10.315Z,97814
2018-05-21T08:59:42.980Z,97801
2018-05-21T09:02:16.556Z,97810
2018-05-21T09:04:49.901Z,97807
2018-05-21T09:07:23.216Z,97813
2018-05-21T09:09:58.861Z,97811
2018-05-21T09:12:35.458Z,97806
2018-05-21T09:15:09.896Z,97800
2018-05-21T09:17:43.498Z,97796
2018-05-21T09:20:17.514Z,97795
2018-05-21T09:22:53.398Z,97801
2018-05-21T09:25:27.773Z,97796
2018-05-21T09:28:03.034Z,97792
2018-05-21T09:30:40.630Z,97794
2018-05-21T09:33:14.776Z,97790
2018-05-21T09:35:49.236Z,97788
2018-05-21T09:38:22.672Z,97784
2018-05-21T09:40:56.038Z,97782
2018-05-21T09:43:29.145Z,97793
2018-05-21T09:46:01.959Z,97783
2018-05-21T09:48:35.846Z,97777
2018-05-21T09:51:12.412Z,97770
2018-05-21T09:53:45.654Z,97775
2018-05-21T09:56:18.673Z,97773
2018-05-21T09:58:51.936Z,97766
2018-05-21T10:01:25.895Z,97762
2018-05-21T10:03:58.557Z,97757
2018-05-21T10:06:30.709Z,97752
2018-05-21T10:09:04.633Z,97749
2018-05-21T10:11:36.250Z,97750
2018-05-21T10:14:10.976Z,97748
2018-05-21T10:16:49.852Z,97746
2018-05-21T10:19:25.106Z,97740
2018-05-21T10:22:00.420Z,97741
2018-05-21T10:24:36.335Z,97736
2018-05-21T10:27:08.754Z,97741
2018-05-21T10:29:43.430Z,97740
2018-05-21T10:32:18.033Z,97736
2018-05-21T10:34:50.434Z,97731
2018-05-21T10:37:25.336Z,97732
2018-05-21T10:40:02.736Z,97735
2018-05-21T10:42:37.454Z,97730
2018-05-21T10:45:09.693Z,97729
2018-05-21T10:47:42.371Z,97733
2018-05-21T10:50:15.873Z,97728
2018-05-21T10:52:50.772Z,97719
2018-05-21T10:55:24.877Z,97713
2018-05-21T10:58:02.479Z,97713
2018-05-21T11:00:36.938Z,97717
2018-05-21T11:03:10.716Z,97707
2018-05-21T11:05:44.990Z,97703
2018-05-21T11:08:19.677Z,97692
2018-05-21T11:10:53.810Z,97696
2018-05-21T11:13:27.953Z,97700
2018-05-21T11:16:02.771Z,97693
2018-05-21T11:18:37.996Z,97684
2018-05-21T12:12:05.271Z,97659
2018-05-21T12:14:39.390Z,97650
2018-05-21T12:17:13.236Z,97643
2018-05-21T12:19:46.539Z,97637
2018-05-21T12:22:19.551Z,97640
2018-05-21T12:54:46.338Z,97647
2018-05-21T12:57:19.892Z,97644
2018-05-21T12:59:56.615Z,97648
2018-05-21T13:02:29.172Z,97648
2018-05-21T13:05:04.674Z,97639
2018-05-21T13:07:38.516Z,97645
2018-05-21T13:10:16.422Z,97636
2018-05-21T13:12:50.094Z,97636
2018-05-21T13:15:26.230Z,97637
2018-05-21T13:18:00.006Z,97631
2018-05-21T13:20:33.373Z,97628
2018-05-21T13:23:08.135Z,97624
2018-05-21T13:25:43.809Z,97617
2018-05-21T13:28:17.214Z,97623
2018-05-21T13:30:50.735Z,97621
2018-05-21T13:33:25.691Z,97621
2018-05-21T13:36:00.075Z,97618
2018-05-21T13:38:35.495Z,97615
2018-05-21T13:41:08.697Z,97618
2018-05-21T13:43:42.753Z,97614
2018-05-21T13:46:17.517Z,97609
2018-05-21T13:48:51.058Z,97607
2018-05-21T13:51:24.275Z,97603
2018-05-21T13:53:58.192Z,97595
2018-05-21T13:56:32.073Z,97589
2018-05-21T13:59:06.335Z,97582
2018-05-21T14:01:41.954Z,97578
2018-05-21T14:04:18.074Z,97577
2018-05-21T14:06:52.973Z,97577
2018-05-21T14:09:27.475Z,97576
2018-05-21T14:12:02.937Z,97564
2018-05-21T14:14:35.434Z,97558
2018-05-21T14:17:12.015Z,97556
2018-05-21T15:49:48.143Z,97472
2018-05-21T15:52:24.922Z,97472
2018-05-21T15:54:57.424Z,97473
2018-05-21T15:57:30.745Z,97474
2018-05-21T16:00:05.240Z,97471
2018-05-21T16:02:37.527Z,97472
2018-05-21T16:05:10.639Z,97474
2018-05-21T16:07:46.039Z,97469
2018-05-21T16:10:21.258Z,97464
2018-05-21T16:12:55.402Z,97470
2018-05-21T16:15:30.347Z,97466
2018-05-21T16:18:05.121Z,97472
2018-05-21T16:20:38.683Z,97466
2018-05-21T16:23:13.028Z,97468
2018-05-21T16:25:45.721Z,97470
2018-05-21T16:28:17.945Z,97469
2018-05-21T16:30:51.344Z,97469
2018-05-21T16:33:28.939Z,97465
2018-05-21T16:36:04.124Z,97465
2018-05-21T16:38:41.001Z,97466
2018-05-21T16:41:17.622Z,97467
2018-05-21T16:43:51.360Z,97464
2018-05-21T16:46:27.977Z,97461
2018-05-21T16:49:05.423Z,97464
2018-05-21T16:51:42.529Z,97465
2018-05-21T16:54:18.379Z,97477
2018-05-21T16:56:52.641Z,97480
2018-05-21T16:59:31.782Z,97488
2018-05-21T17:02:09.419Z,97482
2018-05-21T17:04:43.983Z,97493
2018-05-21T17:07:19.087Z,97503
2018-05-21T17:09:52.318Z,97507
2018-05-21T17:12:26.881Z,97506
2018-05-21T17:15:02.427Z,97511
2018-05-21T17:17:37.861Z,97515
2018-05-21T17:20:10.095Z,97514
2018-05-21T17:22:42.520Z,97516
2018-05-21T17:25:15.465Z,97517
2018-05-21T17:27:49.259Z,97519
2018-05-21T17:30:23.860Z,97523
2018-05-21T17:32:58.081Z,97525
2018-05-21T17:35:31.203Z,97531
2018-05-21T17:38:03.779Z,97530
2018-05-21T17:40:39.305Z,97536
2018-05-21T17:43:12.062Z,97540
2018-05-21T17:45:44.863Z,97541
2018-05-21T17:48:20.240Z,97545
2018-05-21T17:50:53.945Z,97548
2018-05-21T17:53:26.581Z,97551
2018-05-21T17:56:01.398Z,97547
2018-05-21T17:58:34.119Z,97556
2018-05-21T18:01:07.026Z,97557
2018-05-21T18:03:39.231Z,97557
2018-05-21T18:06:12.076Z,97560
2018-05-21T18:08:44.403Z,97556
2018-05-21T18:11:17.743Z,97553
2018-05-21T18:13:50.680Z,97559
2018-05-21T18:16:24.918Z,97556
2018-05-21T18:19:00.804Z,97558
2018-05-21T18:21:36.489Z,97552
2018-05-21T18:24:14.941Z,97557
2018-05-21T18:26:48.102Z,97552
2018-05-21T18:29:21.362Z,97554
2018-05-21T18:31:54.298Z,97547
2018-05-21T18:34:28.324Z,97547
2018-05-21T18:37:10.905Z,97548
2018-05-21T18:39:44.322Z,97552
2018-05-21T18:42:19.229Z,97545
2018-05-21T18:44:52.279Z,97551
2018-05-21T18:47:25.666Z,97548
2018-05-21T18:49:59.299Z,97543
2018-05-21T18:52:31.919Z,97548
2018-05-21T18:55:06.278Z,97541
2018-05-21T18:57:40.261Z,97546
2018-05-21T19:00:15.215Z,97552
2018-05-21T19:02:47.927Z,97552
2018-05-21T19:05:21.879Z,97554
2018-05-21T19:07:56.324Z,97555
2018-05-21T19:10:29.598Z,97551
2018-05-21T19:13:07.186Z,97556
2018-05-21T19:15:41.843Z,97554
2018-05-21T19:18:15.401Z,97558
2018-05-21T19:20:48.737Z,97561
2018-05-21T19:23:21.201Z,97563
2018-05-21T19:25:54.303Z,97566
2018-05-21T19:28:26.946Z,97573
2018-05-21T19:30:59.502Z,97575
2018-05-21T19:33:31.686Z,97572
2018-05-21T19:36:04.326Z,97582
2018-05-21T19:38:38.007Z,97582
2018-05-21T19:41:12.042Z,97582
2018-05-21T19:43:45.197Z,97583
2018-05-21T19:46:17.936Z,97585
2018-05-21T19:48:51.263Z,97584
2018-05-21T19:51:23.761Z,97588
2018-05-21T19:53:57.503Z,97591
2018-05-21T19:56:30.498Z,97592
2018-05-21T19:59:03.302Z,97589
2018-05-21T20:01:37.158Z,97589
2018-05-21T20:04:11.926Z,97593
2018-05-21T20:06:44.866Z,97589
2018-05-21T20:09:19.619Z,97589
2018-05-21T20:11:52.005Z,97594
2018-05-21T20:14:24.602Z,97595
2018-05-21T20:16:57.838Z,97593
2018-05-21T20:19:30.361Z,97596
2018-05-21T20:22:02.782Z,97593
2018-05-21T20:24:36.237Z,97592
2018-05-21T20:27:10.021Z,97593
2018-05-21T20:29:44.480Z,97590
2018-05-21T20:32:18.463Z,97587
2018-05-21T20:34:51.880Z,97581
2018-05-21T20:37:24.367Z,97581
2018-05-21T20:39:56.988Z,97585
2018-05-21T20:42:31.317Z,97581
2018-05-21T20:45:03.739Z,97578
2018-05-21T20:47:37.501Z,97583
2018-05-21T20:50:10.263Z,97591
2018-05-21T20:52:43.584Z,97587
2018-05-21T20:55:16.498Z,97589
2018-05-21T20:57:49.304Z,97594
2018-05-21T21:00:22.440Z,97595
2018-05-21T21:02:55.826Z,97598
2018-05-21T21:05:28.662Z,97596
2018-05-21T21:08:00.903Z,97596
2018-05-21T21:10:34.904Z,97602
2018-05-21T21:13:08.019Z,97598
2018-05-21T21:15:40.859Z,97607
2018-05-21T21:18:13.634Z,97604
2018-05-21T21:20:47.565Z,97609
2018-05-21T21:23:20.454Z,97610
2018-05-21T21:25:54.101Z,97608
2018-05-21T21:28:27.243Z,97607
2018-05-21T21:31:00.999Z,97610
2018-05-21T21:33:35.739Z,97607
2018-05-21T21:36:11.461Z,97607
2018-05-21T21:38:44.879Z,97611
2018-05-21T21:41:20.163Z,97611
2018-05-21T21:43:53.840Z,97610
2018-05-21T21:46:28.729Z,97614
2018-05-21T21:49:02.645Z,97614
2018-05-21T21:51:35.620Z,97618
2018-05-21T21:54:08.659Z,97617
2018-05-21T21:56:41.417Z,97615
2018-05-21T21:59:16.786Z,97615
2018-05-21T22:01:50.021Z,97616
2018-05-21T22:04:22.862Z,97615
2018-05-21T22:06:55.559Z,97615
2018-05-21T22:09:28.220Z,97610
2018-05-21T22:31:30.502Z,97614
2018-05-21T22:34:04.565Z,97616
2018-05-21T22:36:38.708Z,97617
2018-05-21T22:39:11.650Z,97614
2018-05-21T22:41:44.758Z,97610
2018-05-21T22:44:17.417Z,97607
2018-05-21T22:46:51.342Z,97613
2018-05-21T22:49:25.244Z,97611
2018-05-21T22:51:57.483Z,97609
2018-05-21T22:54:39.824Z,97600
2018-05-21T22:57:13.379Z,97609
2018-05-21T22:59:45.419Z,97611
2018-05-21T23:02:18.221Z,97609
2018-05-21T23:04:51.765Z,97604
2018-05-21T23:07:26.362Z,97602
2018-05-21T23:09:58.920Z,97607
2018-05-21T23:12:31.298Z,97600
2018-05-21T23:15:03.976Z,97604
2018-05-21T23:17:38.357Z,97599
2018-05-21T23:20:10.544Z,97597
2018-05-21T23:22:47.943Z,97594
2018-05-21T23:25:20.280Z,97600
2018-05-21T23:27:52.580Z,97602
2018-05-21T23:30:24.880Z,97593
2018-05-21T23:32:57.281Z,97591
2018-05-21T23:35:29.378Z,97592
2018-05-21T23:38:01.964Z,97592
2018-05-21T23:40:34.559Z,97590
2018-05-21T23:43:06.763Z,97591
2018-05-21T23:45:38.864Z,97594
2018-05-21T23:48:11.265Z,97594
2018-05-21T23:50:43.898Z,97594
2018-05-21T23:53:17.456Z,97594
2018-05-21T23:55:50.981Z,97592
2018-05-21T23:58:24.139Z,97591
